Aliquippa, Pennsylvania
Current Conditions -  °F | °C
As of 2:51 AM on Friday 24 Oct 2014 (Local Time) from KPIT Reporting Station
Few Clouds Few Clouds  
Wind Chill:   Ceiling: Unl
Heat Index:   Visibility: 10mi
Dew Point:   Wind: 3mph
Humidity: 97%   Direction: 300°WNW
Pressure: 30.08"   Gusts: NA
Location:  40.62°N, 80.24°W
Report Text: KPIT 240651Z 30003KT 10SM FEW250 04/04 A3008 RMK AO2 SLP196 T00440039
Loading
Personal Weather Stations






























Interactive Weather Map
Tropical Storm Tracking
New forecast layout! Learn more

10-Day Weather Forecast

Advertisements
Track Severe Weather on mobile